createdAt,value
2023-03-01T00:00:55.836Z,9.33
2023-03-01T00:04:19.968Z,9.70
2023-03-01T00:07:43.487Z,10.70
2023-03-01T00:11:14.361Z,8.70
2023-03-01T00:14:38.924Z,10.03
2023-03-01T00:18:10.533Z,9.80
2023-03-01T00:21:36.097Z,9.13
2023-03-01T00:24:59.641Z,9.40
2023-03-01T00:28:25.449Z,9.43
2023-03-01T00:31:49.971Z,9.00
2023-03-01T00:35:14.065Z,10.20
2023-03-01T00:38:38.781Z,8.50
2023-03-01T00:42:02.942Z,9.70
2023-03-01T00:45:28.872Z,9.33
2023-03-01T00:48:52.997Z,10.60
2023-03-01T00:52:17.032Z,10.73
2023-03-01T00:55:41.228Z,11.30
2023-03-01T00:59:07.346Z,13.50
2023-03-01T01:02:36.260Z,11.47
2023-03-01T01:06:10.862Z,10.93
2023-03-01T01:09:35.942Z,11.33
2023-03-01T01:13:00.044Z,10.47
2023-03-01T01:16:25.677Z,9.57
2023-03-01T01:19:51.330Z,9.90
2023-03-01T01:23:15.054Z,10.70
2023-03-01T01:26:39.124Z,11.73
2023-03-01T01:30:02.978Z,10.60
2023-03-01T01:33:27.038Z,9.73
2023-03-01T01:36:54.902Z,9.40
2023-03-01T01:40:19.218Z,9.70
2023-03-01T01:43:45.170Z,11.40
2023-03-01T01:47:14.970Z,10.00
2023-03-01T01:50:42.610Z,9.70
2023-03-01T01:54:13.108Z,9.37
2023-03-01T01:57:40.916Z,11.87
2023-03-01T02:01:06.106Z,11.13
2023-03-01T02:04:30.554Z,9.00
2023-03-01T02:07:54.651Z,10.53
2023-03-01T02:11:23.030Z,10.23
2023-03-01T02:14:47.350Z,9.53
2023-03-01T02:18:14.386Z,9.80
2023-03-01T02:21:53.491Z,9.50
2023-03-01T02:25:36.534Z,9.60
2023-03-01T02:29:03.576Z,10.47
2023-03-01T02:32:28.456Z,9.93
2023-03-01T02:35:54.177Z,9.93
2023-03-01T02:39:21.732Z,10.43
2023-03-01T02:42:53.079Z,9.03
2023-03-01T02:46:21.865Z,10.40
2023-03-01T02:49:46.076Z,10.70
2023-03-01T02:53:15.072Z,10.00
2023-03-01T02:56:39.119Z,9.90
2023-03-01T03:00:08.855Z,10.47
2023-03-01T03:03:35.414Z,10.40
2023-03-01T03:06:59.480Z,10.70
2023-03-01T03:10:26.458Z,9.80
2023-03-01T03:13:50.003Z,10.43
2023-03-01T03:17:15.102Z,9.67
2023-03-01T03:20:42.478Z,8.80
2023-03-01T03:24:06.863Z,11.40
2023-03-01T03:27:32.985Z,10.10
2023-03-01T03:30:57.142Z,11.30
2023-03-01T03:34:21.330Z,10.00
2023-03-01T03:38:06.378Z,10.67
2023-03-01T03:41:39.159Z,11.13
2023-03-01T03:45:03.198Z,9.10
2023-03-01T03:48:30.749Z,10.03
2023-03-01T03:51:55.140Z,10.47
2023-03-01T03:55:21.254Z,10.67
2023-03-01T03:58:44.843Z,10.73
2023-03-01T04:02:11.386Z,10.73
2023-03-01T04:05:36.325Z,9.50
2023-03-01T04:09:03.884Z,13.20
2023-03-01T04:12:29.516Z,10.87
2023-03-01T04:15:53.315Z,10.50
2023-03-01T04:19:18.130Z,10.20
2023-03-01T04:22:42.772Z,11.37
2023-03-01T04:26:06.592Z,10.63
2023-03-01T04:29:31.800Z,11.20
2023-03-01T04:32:56.198Z,10.80
2023-03-01T04:36:22.291Z,9.03
2023-03-01T04:39:46.639Z,10.67
2023-03-01T04:43:11.951Z,10.10
2023-03-01T04:46:38.237Z,10.40
2023-03-01T04:50:02.230Z,10.50
2023-03-01T04:53:26.236Z,10.63
2023-03-01T04:56:50.192Z,10.53
2023-03-01T05:00:28.764Z,10.07
2023-03-01T05:03:55.494Z,10.00
2023-03-01T05:07:20.279Z,10.90
2023-03-01T05:10:46.828Z,10.40
2023-03-01T05:14:11.625Z,10.60
2023-03-01T05:17:36.100Z,10.37
2023-03-01T05:21:07.249Z,10.60
2023-03-01T05:24:32.292Z,11.80
2023-03-01T05:27:56.295Z,10.57
2023-03-01T05:31:21.548Z,12.60
2023-03-01T05:34:47.240Z,11.83
2023-03-01T05:38:14.192Z,10.30
2023-03-01T05:41:38.336Z,10.70
2023-03-01T05:45:02.264Z,10.60
2023-03-01T05:48:26.245Z,11.00
2023-03-01T05:51:52.539Z,12.47
2023-03-01T05:55:18.711Z,10.43
2023-03-01T05:58:42.310Z,12.23
2023-03-01T06:02:07.543Z,11.73
2023-03-01T06:05:32.031Z,12.83
2023-03-01T06:08:56.605Z,12.40
2023-03-01T06:12:21.669Z,11.83
2023-03-01T06:15:45.348Z,15.00
2023-03-01T06:19:09.413Z,18.27
2023-03-01T06:22:33.544Z,14.20
2023-03-01T06:25:57.421Z,14.17
2023-03-01T06:29:23.377Z,12.80
2023-03-01T06:32:47.026Z,11.73
2023-03-01T06:36:11.702Z,12.23
2023-03-01T06:39:36.502Z,13.70
2023-03-01T06:43:01.803Z,13.00
2023-03-01T06:46:28.736Z,13.10
2023-03-01T06:49:53.359Z,12.00
2023-03-01T06:53:17.787Z,12.40
2023-03-01T06:56:42.496Z,13.20
2023-03-01T07:00:07.966Z,13.63
2023-03-01T07:03:33.697Z,12.03
2023-03-01T07:06:57.306Z,12.77
2023-03-01T07:10:21.447Z,13.20
2023-03-01T07:13:45.357Z,11.17
2023-03-01T07:17:09.569Z,11.67
2023-03-01T07:20:34.860Z,12.30
2023-03-01T07:23:59.404Z,12.30
2023-03-01T07:27:23.627Z,12.33
2023-03-01T07:30:47.404Z,13.30
2023-03-01T07:34:11.612Z,13.13
2023-03-01T07:37:39.629Z,13.13
2023-03-01T07:41:06.988Z,11.80
2023-03-01T07:44:31.465Z,11.70
2023-03-01T07:47:55.926Z,11.67
2023-03-01T07:51:21.281Z,11.17
2023-03-01T07:54:50.355Z,12.00
2023-03-01T07:58:14.425Z,12.30
2023-03-01T08:01:38.504Z,13.77
2023-03-01T08:05:02.407Z,12.70
2023-03-01T08:08:27.722Z,12.97
2023-03-01T08:11:55.510Z,11.57
2023-03-01T08:15:19.727Z,10.70
2023-03-01T08:18:44.269Z,10.60
2023-03-01T08:22:08.241Z,11.10
2023-03-01T08:25:31.838Z,11.23
2023-03-01T08:28:56.776Z,10.20
2023-03-01T08:32:20.679Z,11.37
2023-03-01T08:35:44.400Z,12.10
2023-03-01T08:39:09.218Z,10.10
2023-03-01T08:42:32.903Z,10.50
2023-03-01T08:45:57.969Z,10.97
2023-03-01T08:49:22.325Z,11.40
2023-03-01T08:52:46.454Z,10.00
2023-03-01T08:56:10.898Z,11.97
2023-03-01T08:59:38.081Z,11.37
2023-03-01T09:03:03.185Z,11.50
2023-03-01T09:06:26.889Z,11.43
2023-03-01T09:09:50.392Z,12.17
2023-03-01T09:13:14.060Z,11.93
2023-03-01T09:16:37.830Z,10.40
2023-03-01T09:20:06.408Z,12.33
2023-03-01T09:23:30.029Z,10.13
2023-03-01T09:26:55.712Z,10.47
2023-03-01T09:30:19.682Z,11.27
2023-03-01T09:33:44.177Z,11.00
2023-03-01T09:37:09.111Z,11.10
2023-03-01T09:40:32.700Z,11.13
2023-03-01T09:44:00.102Z,9.67
2023-03-01T09:47:26.312Z,9.53
2023-03-01T09:50:50.175Z,9.90
2023-03-01T09:54:15.422Z,9.77
2023-03-01T09:57:45.757Z,8.93
2023-03-01T10:01:32.651Z,9.47
2023-03-01T10:05:06.830Z,10.10
2023-03-01T10:08:37.242Z,10.30
2023-03-01T10:12:04.410Z,8.80
2023-03-01T10:15:36.163Z,9.83
2023-03-01T10:19:03.754Z,10.17
2023-03-01T10:22:30.986Z,9.20
2023-03-01T10:26:09.045Z,9.30
2023-03-01T10:29:40.282Z,8.57
2023-03-01T10:33:04.978Z,8.30
2023-03-01T10:36:28.761Z,8.47
2023-03-01T10:40:02.046Z,8.83
2023-03-01T10:43:26.534Z,9.10
2023-03-01T10:47:02.074Z,9.50
2023-03-01T10:50:25.752Z,7.90
2023-03-01T10:53:52.625Z,7.00
2023-03-01T10:57:31.644Z,8.77
2023-03-01T11:00:56.888Z,7.57
2023-03-01T11:04:22.727Z,8.20
2023-03-01T11:07:50.368Z,7.60
2023-03-01T11:11:25.575Z,6.63
2023-03-01T11:14:50.583Z,6.87
2023-03-01T11:18:26.620Z,7.07
2023-03-01T11:22:02.114Z,7.07
2023-03-01T11:25:28.894Z,6.70
2023-03-01T11:28:58.171Z,8.17
2023-03-01T11:32:25.545Z,7.90
2023-03-01T11:35:57.629Z,7.10
2023-03-01T11:39:32.870Z,6.50
2023-03-01T11:43:04.883Z,6.47
2023-03-01T11:46:48.823Z,4.57
2023-03-01T11:50:30.926Z,4.80
2023-03-01T11:54:15.322Z,4.13
2023-03-01T11:58:00.933Z,5.30
2023-03-01T12:01:42.242Z,6.30
2023-03-01T12:05:42.056Z,5.43
2023-03-01T12:09:22.588Z,5.23
2023-03-01T12:13:23.184Z,4.43
2023-03-01T12:17:09.117Z,4.50
2023-03-01T12:20:40.286Z,4.67
2023-03-01T12:24:33.861Z,6.00
2023-03-01T12:28:30.134Z,5.60
2023-03-01T12:32:18.985Z,5.70
2023-03-01T12:36:14.976Z,5.00
2023-03-01T12:39:52.834Z,4.17
2023-03-01T12:43:28.261Z,5.93
2023-03-01T12:47:08.568Z,4.67
2023-03-01T12:50:41.517Z,6.60
2023-03-01T12:54:16.520Z,4.90
2023-03-01T12:57:48.238Z,6.10
2023-03-01T13:01:20.857Z,4.33
2023-03-01T13:05:00.182Z,5.20
2023-03-01T13:08:30.185Z,5.80
2023-03-01T13:11:53.844Z,4.70
2023-03-01T13:15:37.276Z,4.90
2023-03-01T13:19:10.866Z,4.43
2023-03-01T13:22:44.185Z,5.37
2023-03-01T13:26:16.603Z,6.07
2023-03-01T13:29:47.858Z,3.87
2023-03-01T13:33:42.041Z,4.03
2023-03-01T13:37:11.797Z,4.17
2023-03-01T13:41:02.267Z,4.70
2023-03-01T13:44:30.845Z,4.83
2023-03-01T13:48:02.242Z,4.23
2023-03-01T13:51:27.958Z,4.80
2023-03-01T13:54:51.811Z,3.93
2023-03-01T13:58:24.273Z,4.10
2023-03-01T14:01:56.156Z,4.87
2023-03-01T14:05:19.664Z,4.33
2023-03-01T14:08:44.284Z,4.83
2023-03-01T14:12:22.220Z,5.20
2023-03-01T14:15:58.687Z,4.87
2023-03-01T14:19:33.136Z,5.07
2023-03-01T14:23:00.241Z,4.27
2023-03-01T14:26:24.485Z,4.20
2023-03-01T14:29:57.975Z,5.60
2023-03-01T14:33:25.952Z,4.50
2023-03-01T14:36:49.487Z,5.07
2023-03-01T14:40:25.123Z,4.57
2023-03-01T14:43:52.285Z,4.97
2023-03-01T14:47:21.816Z,5.23
2023-03-01T14:50:47.641Z,4.77
2023-03-01T14:54:23.598Z,3.83
2023-03-01T14:57:49.359Z,3.70
2023-03-01T15:01:17.829Z,4.00
2023-03-01T15:04:43.640Z,4.63
2023-03-01T15:08:09.721Z,4.43
2023-03-01T15:11:34.432Z,4.40
2023-03-01T15:15:04.393Z,3.90
2023-03-01T15:18:31.050Z,4.50
2023-03-01T15:21:54.720Z,4.57
2023-03-01T15:25:22.764Z,4.40
2023-03-01T15:28:52.641Z,4.37
2023-03-01T15:32:28.891Z,3.43
2023-03-01T15:35:55.015Z,5.20
2023-03-01T15:39:39.899Z,5.10
2023-03-01T15:43:06.686Z,4.13
2023-03-01T15:46:34.066Z,3.40
2023-03-01T15:49:59.681Z,4.17
2023-03-01T15:53:23.438Z,3.00
2023-03-01T15:56:46.887Z,4.43
2023-03-01T16:00:15.164Z,5.00
2023-03-01T16:03:38.649Z,4.40
2023-03-01T16:07:02.179Z,4.47
2023-03-01T16:10:26.569Z,4.80
2023-03-01T16:13:50.732Z,3.97
2023-03-01T16:17:16.350Z,4.03
2023-03-01T16:20:39.930Z,4.03
2023-03-01T16:24:03.602Z,5.40
2023-03-01T16:27:27.149Z,4.10
2023-03-01T16:30:51.634Z,4.80
2023-03-01T16:34:16.993Z,4.30
2023-03-01T16:37:41.743Z,4.50
2023-03-01T16:41:06.521Z,4.70
2023-03-01T16:44:29.987Z,4.67
2023-03-01T16:47:55.841Z,4.90
2023-03-01T16:51:21.730Z,4.37
2023-03-01T16:54:45.378Z,4.43
2023-03-01T16:58:10.122Z,3.80
2023-03-01T17:01:40.362Z,4.20
2023-03-01T17:05:04.749Z,4.50
2023-03-01T17:08:29.722Z,5.07
2023-03-01T17:11:53.214Z,4.70
2023-03-01T17:15:16.863Z,4.53
2023-03-01T17:18:40.650Z,5.23
2023-03-01T17:22:04.347Z,5.60
2023-03-01T17:25:29.507Z,5.47
2023-03-01T17:28:53.090Z,5.87
2023-03-01T17:32:16.714Z,6.33
2023-03-01T17:35:40.405Z,4.80
2023-03-01T17:39:03.963Z,5.40
2023-03-01T17:42:29.264Z,4.97
2023-03-01T17:45:54.490Z,5.30
2023-03-01T17:49:18.227Z,5.60
2023-03-01T17:52:42.468Z,6.07
2023-03-01T17:56:08.095Z,5.90
2023-03-01T17:59:33.989Z,6.27
2023-03-01T18:02:57.469Z,6.53
2023-03-01T18:06:23.076Z,6.30
2023-03-01T18:09:46.697Z,5.87
2023-03-01T18:13:10.864Z,6.77
2023-03-01T18:16:36.070Z,5.83
2023-03-01T18:19:59.820Z,5.77
2023-03-01T18:23:23.403Z,6.30
2023-03-01T18:26:46.940Z,6.03
2023-03-01T18:30:11.966Z,6.23
2023-03-01T18:33:37.524Z,6.80
2023-03-01T18:37:09.203Z,8.20
2023-03-01T18:40:33.575Z,6.60
2023-03-01T18:43:57.449Z,5.80
2023-03-01T18:47:20.999Z,7.20
2023-03-01T18:50:45.955Z,7.00
2023-03-01T18:54:12.706Z,6.80
2023-03-01T18:57:36.525Z,6.20
2023-03-01T19:01:02.462Z,5.73
2023-03-01T19:04:27.160Z,7.80
2023-03-01T19:07:52.661Z,7.27
2023-03-01T19:11:17.875Z,8.53
2023-03-01T19:14:41.519Z,6.90
2023-03-01T19:18:05.936Z,6.97
2023-03-01T19:21:31.778Z,7.27
2023-03-01T19:24:57.057Z,7.93
2023-03-01T19:28:20.571Z,7.03
2023-03-01T19:31:44.204Z,6.47
2023-03-01T19:35:08.824Z,7.20
2023-03-01T19:38:32.530Z,6.73
2023-03-01T19:41:57.860Z,6.80
2023-03-01T19:45:31.858Z,6.50
2023-03-01T19:48:58.833Z,6.63
2023-03-01T19:52:22.423Z,7.60
2023-03-01T19:55:46.209Z,7.37
2023-03-01T19:59:11.144Z,7.60
2023-03-01T20:02:34.781Z,6.43
2023-03-01T20:05:58.866Z,6.10
2023-03-01T20:09:22.776Z,6.90
2023-03-01T20:12:46.388Z,6.63
2023-03-01T20:16:11.860Z,7.17
2023-03-01T20:19:35.499Z,5.70
2023-03-01T20:22:59.608Z,5.27
2023-03-01T20:26:25.407Z,6.17
2023-03-01T20:29:49.645Z,6.30
2023-03-01T20:33:14.527Z,6.37
2023-03-01T20:36:40.823Z,5.90
2023-03-01T20:40:04.695Z,7.53
2023-03-01T20:43:28.772Z,7.60
2023-03-01T20:46:52.349Z,6.93
2023-03-01T20:50:18.435Z,7.30
2023-03-01T20:53:42.279Z,8.13
2023-03-01T20:57:05.793Z,7.77
2023-03-01T21:00:29.466Z,8.10
2023-03-01T21:03:56.228Z,7.67
2023-03-01T21:07:21.218Z,7.83
2023-03-01T21:10:50.379Z,7.37
2023-03-01T21:14:16.475Z,7.70
2023-03-01T21:17:40.314Z,7.13
2023-03-01T21:21:06.322Z,7.37
2023-03-01T21:24:31.961Z,9.00
2023-03-01T21:27:55.471Z,7.63
2023-03-01T21:31:22.176Z,7.63
2023-03-01T21:34:46.503Z,9.23
2023-03-01T21:38:10.144Z,8.17
2023-03-01T21:41:40.364Z,8.70
2023-03-01T21:45:04.310Z,9.00
2023-03-01T21:48:28.049Z,9.57
2023-03-01T21:51:51.677Z,9.97
2023-03-01T21:55:15.544Z,8.73
2023-03-01T21:58:41.405Z,9.10
2023-03-01T22:02:06.607Z,8.57
2023-03-01T22:05:30.131Z,8.40
2023-03-01T22:08:55.763Z,9.37
2023-03-01T22:12:19.215Z,9.90
2023-03-01T22:15:44.916Z,9.87
2023-03-01T22:19:08.821Z,9.07
2023-03-01T22:22:33.442Z,9.53
2023-03-01T22:25:57.838Z,7.97
2023-03-01T22:29:23.853Z,11.20
2023-03-01T22:32:49.139Z,8.77
2023-03-01T22:36:13.948Z,9.20
2023-03-01T22:39:37.428Z,8.97
2023-03-01T22:43:01.016Z,8.20
2023-03-01T22:46:24.971Z,7.33
2023-03-01T22:49:50.156Z,8.70
2023-03-01T22:53:14.053Z,7.70
2023-03-01T22:56:39.084Z,6.80
2023-03-01T23:00:02.709Z,7.57
2023-03-01T23:03:26.483Z,7.93
2023-03-01T23:06:53.691Z,8.80
2023-03-01T23:10:17.645Z,7.10
2023-03-01T23:13:41.654Z,7.67
2023-03-01T23:17:07.114Z,7.33
2023-03-01T23:20:30.676Z,6.63
2023-03-01T23:23:57.228Z,7.47
2023-03-01T23:27:20.897Z,6.30
2023-03-01T23:30:45.118Z,8.17
2023-03-01T23:34:13.958Z,7.37
2023-03-01T23:37:38.262Z,9.40
2023-03-01T23:41:05.993Z,9.10
2023-03-01T23:44:29.667Z,8.43
2023-03-01T23:47:54.887Z,7.57
2023-03-01T23:51:19.553Z,7.77
2023-03-01T23:54:43.143Z,7.03
2023-03-01T23:58:08.233Z,6.47
